Lynchburg Regional Preston Glenn Field
KLYH : rendu visible

Aérodrome :











RETROUVEZ-NOUS SUR...

 
LOGIN :

S'inscrire | Disclaimer

   EN    FR    IT 

 









Légende :    VFR   VFR Marginal   IFR   IFR Intensif   IFR Très Intensif
Visi : 
Plafond : 
>= 8 km
>= 3000ft
5 à 8 km
1000 à 3000 ft
1500m à 5 km
500 à 1000 ft
800 à 1500m
200 à 500 ft
< 800m
< 200 ft
Symboles :   Orages  Brouillard  Fortes neiges  Fortes précipitations  Vent > 20 kt






- Altitude de l'aérodrome : 938 ft
- Code IATA : LYH


KLYH - Lynchburg Regional Preston Glenn Field

DERNIER METAR :
  • 271318Z COR 06003KT 2SM BR BKN005 BKN009 OVC017 19/18 A3019 RMK AO2 RAE03 P0000 T01940178

METARs EXPIRÉS :
  • 271254Z 06003KT 2SM R04/5000VP6000FT -RA BR SCT005 BKN009 OVC020 19/18 A3019 RMK AO2 RAB13E26B52 CIG 007V011 SLP215 P0000 T01940178
  • 271154Z 05004KT 10SM BKN006 BKN010 OVC018 19/17 A3018 RMK AO2 CIG 005V009 SLP214 60000 T01940172 10200 20189 51006
  • 271143Z 05005KT 10SM BKN010 OVC018 19/18 A3018 RMK AO2 CIG 005V013 T01940178 $
  • 271134Z 05005KT 10SM FEW006 SCT012 OVC018 19/17 A3018 RMK AO2 T01940172 $
  • 271054Z 00000KT 10SM BKN012 19/17 A3018 RMK AO2 SLP211 T01940172

TAF KLYH
Valide du 27 à 12h jusqu'au 28 à 12h UTC


271120Z 2712/2812 07005KT P6SM SCT006 BKN030
TEMPO 2712/2715 BKN006
FM271600 07005KT P6SM OVC014
FM272100 04008KT 6SM SHRA OVC020
FM280000 05009KT 2SM +SHRA BR OVC010
FM280600 15009G20KT 3SM -SHRA BR OVC007
FM281000 16008KT 6SM BR OVC013
FIR KZDC / Amérique du Nord



MET'MAP, la Météo Aéronautique d'un coup d'oeil ! - Copyright ORBIFLY Décembre 2007 - Disclaimer

ORBIFLY MET'MAP TEAM :

Programmation & Développement : Alexandra Zaïnal
Sur une idée originale de : Baudouin d'Aumeries
Assistance à la programmation : Marc-Olivier Méhu
Soutien technique & logistique : Manuel Goepfert

Contact : metmap@orbifly.com




SOURCES & CREDITS :

   NOAA       Earth
Advisory